createdAt,value
2023-02-15T00:00:11.572Z,28.87
2023-02-15T00:02:38.986Z,29.57
2023-02-15T00:05:06.815Z,30.57
2023-02-15T00:07:33.804Z,34.07
2023-02-15T00:10:00.809Z,35.27
2023-02-15T00:12:27.828Z,39.17
2023-02-15T00:14:54.874Z,38.60
2023-02-15T00:17:22.459Z,38.90
2023-02-15T00:19:49.447Z,41.60
2023-02-15T00:22:16.446Z,40.17
2023-02-15T00:24:43.416Z,42.33
2023-02-15T00:27:10.410Z,45.10
2023-02-15T00:29:37.483Z,45.60
2023-02-15T00:32:04.774Z,40.40
2023-02-15T00:34:31.750Z,38.77
2023-02-15T00:36:59.000Z,36.67
2023-02-15T00:39:26.560Z,34.50
2023-02-15T00:41:53.673Z,29.00
2023-02-15T00:44:20.611Z,27.27
2023-02-15T00:46:47.636Z,29.27
2023-02-15T00:49:14.653Z,29.00
2023-02-15T00:51:41.648Z,29.93
2023-02-15T00:54:09.073Z,31.90
2023-02-15T00:56:36.032Z,29.53
2023-02-15T00:59:03.542Z,30.97
2023-02-15T01:01:30.663Z,31.27
2023-02-15T01:03:57.958Z,32.07
2023-02-15T01:06:24.959Z,33.73
2023-02-15T01:08:51.959Z,33.67
2023-02-15T01:11:25.284Z,34.67
2023-02-15T01:13:55.615Z,33.70
2023-02-15T01:16:24.769Z,34.80
2023-02-15T01:18:52.011Z,36.03
2023-02-15T01:21:22.243Z,40.53
2023-02-15T01:23:50.112Z,38.93
2023-02-15T01:26:17.727Z,37.37
2023-02-15T01:28:45.636Z,36.00
2023-02-15T01:31:20.192Z,37.00
2023-02-15T01:33:48.896Z,35.57
2023-02-15T01:36:18.521Z,37.40
2023-02-15T01:38:46.166Z,36.17
2023-02-15T01:41:27.316Z,35.13
2023-02-15T01:44:01.889Z,36.00
2023-02-15T01:46:52.828Z,37.20
2023-02-15T01:49:25.382Z,34.47
2023-02-15T01:51:53.935Z,37.43
2023-02-15T01:54:30.293Z,35.17
2023-02-15T01:57:03.345Z,35.27
2023-02-15T01:59:33.136Z,34.07
2023-02-15T02:02:01.768Z,35.20
2023-02-15T02:04:47.277Z,32.97
2023-02-15T02:07:19.709Z,32.90
2023-02-15T02:09:47.016Z,34.90
2023-02-15T02:12:15.336Z,37.67
2023-02-15T02:14:43.387Z,37.00
2023-02-15T02:17:22.261Z,35.93
2023-02-15T02:20:33.254Z,39.40
2023-02-15T02:23:44.840Z,37.10
2023-02-15T02:26:38.935Z,36.20
2023-02-15T02:29:33.103Z,37.67
2023-02-15T02:32:17.825Z,38.43
2023-02-15T02:35:02.443Z,38.13
2023-02-15T02:37:42.656Z,44.23
2023-02-15T02:40:27.144Z,40.10
2023-02-15T02:43:23.138Z,39.20
2023-02-15T02:46:11.506Z,37.27
2023-02-15T02:48:39.624Z,38.00
2023-02-15T02:51:06.561Z,40.50
2023-02-15T02:53:34.806Z,41.00
2023-02-15T02:56:19.761Z,41.30
2023-02-15T02:59:03.257Z,37.63
2023-02-15T03:01:56.887Z,40.10
2023-02-15T03:04:31.746Z,38.20
2023-02-15T03:07:07.433Z,40.23
2023-02-15T03:09:47.472Z,37.77
2023-02-15T03:12:27.916Z,38.57
2023-02-15T03:15:11.744Z,36.00
2023-02-15T03:17:44.707Z,36.10
2023-02-15T03:20:22.987Z,40.00
2023-02-15T03:22:56.857Z,40.70
2023-02-15T03:25:41.438Z,39.67
2023-02-15T03:28:13.849Z,36.27
2023-02-15T03:30:43.699Z,38.17
2023-02-15T03:33:12.043Z,36.60
2023-02-15T03:36:43.844Z,36.67
2023-02-15T03:39:45.894Z,35.40
2023-02-15T03:42:35.013Z,32.70
2023-02-15T03:45:17.377Z,33.67
2023-02-15T03:47:50.121Z,33.17
2023-02-15T03:50:39.109Z,34.23
2023-02-15T03:53:11.587Z,31.27
2023-02-15T03:55:38.941Z,32.40
2023-02-15T03:58:24.341Z,32.20
2023-02-15T04:01:19.699Z,33.23
2023-02-15T04:03:55.278Z,33.87
2023-02-15T04:06:22.332Z,34.77
2023-02-15T04:09:07.506Z,34.67
2023-02-15T04:11:34.536Z,34.03
2023-02-15T04:14:21.478Z,33.37
2023-02-15T04:16:48.548Z,35.60
2023-02-15T04:19:33.778Z,37.97
2023-02-15T04:22:19.654Z,35.87
2023-02-15T04:25:04.830Z,36.40
2023-02-15T04:27:32.840Z,37.63
2023-02-15T04:29:59.981Z,36.67
2023-02-15T04:32:27.087Z,34.23
2023-02-15T04:34:54.122Z,33.23
2023-02-15T04:37:21.094Z,32.80
2023-02-15T04:39:48.059Z,33.70
2023-02-15T04:42:14.975Z,33.13
2023-02-15T04:44:43.012Z,33.50
2023-02-15T04:47:10.297Z,33.87
2023-02-15T04:49:37.290Z,36.07
2023-02-15T04:52:04.390Z,35.40
2023-02-15T04:54:31.320Z,34.37
2023-02-15T04:56:58.309Z,34.37
2023-02-15T04:59:25.304Z,34.07
2023-02-15T05:01:52.251Z,32.70
2023-02-15T05:04:19.307Z,35.47
2023-02-15T05:06:46.446Z,33.87
2023-02-15T05:09:14.039Z,38.57
2023-02-15T05:11:41.148Z,38.57
2023-02-15T05:14:08.471Z,37.00
2023-02-15T05:16:35.467Z,36.43
2023-02-15T05:19:03.149Z,36.33
2023-02-15T05:21:30.178Z,37.47
2023-02-15T05:23:57.472Z,37.20
2023-02-15T05:26:44.217Z,40.23
2023-02-15T05:29:11.779Z,38.80
2023-02-15T05:31:39.347Z,37.13
2023-02-15T05:34:06.548Z,39.47
2023-02-15T05:36:33.508Z,39.17
2023-02-15T05:39:00.464Z,37.93
2023-02-15T05:41:27.516Z,38.77
2023-02-15T05:43:57.581Z,37.40
2023-02-15T05:46:24.751Z,38.03
2023-02-15T05:48:51.864Z,37.77
2023-02-15T05:51:18.869Z,37.77
2023-02-15T05:53:45.848Z,37.57
2023-02-15T05:56:14.417Z,36.23
2023-02-15T05:58:42.955Z,36.77
2023-02-15T06:01:14.843Z,36.57
2023-02-15T06:03:42.248Z,36.63
2023-02-15T06:06:09.569Z,37.33
2023-02-15T06:08:38.200Z,35.97
2023-02-15T06:11:06.327Z,37.37
2023-02-15T06:13:38.038Z,36.73
2023-02-15T06:16:06.954Z,39.70
2023-02-15T06:18:35.061Z,39.47
2023-02-15T06:21:02.054Z,43.40
2023-02-15T06:23:29.601Z,42.67
2023-02-15T06:25:56.642Z,44.07
2023-02-15T06:28:23.653Z,45.37
2023-02-15T06:30:50.794Z,47.40
2023-02-15T06:33:17.784Z,45.60
2023-02-15T06:35:47.317Z,46.47
2023-02-15T06:38:14.539Z,46.27
2023-02-15T06:40:41.663Z,43.00
2023-02-15T06:43:08.664Z,43.60
2023-02-15T06:45:35.711Z,43.80
2023-02-15T06:48:02.766Z,40.93
2023-02-15T06:50:29.738Z,44.67
2023-02-15T06:53:00.647Z,44.47
2023-02-15T06:55:28.060Z,42.10
2023-02-15T06:57:55.098Z,43.47
2023-02-15T07:00:24.105Z,42.43
2023-02-15T07:02:59.165Z,42.97
2023-02-15T07:05:32.171Z,42.67
2023-02-15T07:08:00.509Z,43.50
2023-02-15T07:10:28.483Z,43.97
2023-02-15T07:12:55.482Z,44.00
2023-02-15T07:15:22.933Z,42.83
2023-02-15T07:17:50.295Z,40.97
2023-02-15T07:20:23.307Z,41.37
2023-02-15T07:22:51.238Z,41.57
2023-02-15T07:25:19.329Z,38.47
2023-02-15T07:27:46.711Z,43.67
2023-02-15T07:30:20.981Z,44.83
2023-02-15T07:33:06.293Z,42.30
2023-02-15T07:35:34.535Z,43.23
2023-02-15T07:38:02.154Z,43.97
2023-02-15T07:40:29.204Z,43.97
2023-02-15T07:43:00.084Z,45.60
2023-02-15T07:45:28.029Z,42.63
2023-02-15T07:47:55.124Z,44.03
2023-02-15T07:50:22.195Z,43.77
2023-02-15T07:52:49.142Z,44.63
2023-02-15T07:55:16.407Z,42.07
2023-02-15T07:57:47.383Z,41.47
2023-02-15T08:00:21.215Z,43.73
2023-02-15T08:03:13.974Z,43.03
2023-02-15T08:05:46.239Z,42.83
2023-02-15T08:08:31.691Z,44.83
2023-02-15T08:11:18.981Z,43.73
2023-02-15T08:13:56.533Z,41.53
2023-02-15T08:16:43.728Z,44.37
2023-02-15T08:19:16.533Z,44.90
2023-02-15T08:21:50.799Z,42.90
2023-02-15T08:24:21.165Z,42.47
2023-02-15T08:26:49.312Z,36.83
2023-02-15T08:29:23.467Z,35.37
2023-02-15T08:31:55.034Z,35.27
2023-02-15T08:34:22.631Z,33.87
2023-02-15T08:36:49.628Z,34.77
2023-02-15T08:39:17.349Z,33.50
2023-02-15T08:41:47.504Z,33.77
2023-02-15T08:44:17.790Z,34.13
2023-02-15T08:46:46.154Z,34.00
2023-02-15T08:49:22.358Z,33.17
2023-02-15T08:51:50.640Z,29.90
2023-02-15T08:54:22.184Z,27.27
2023-02-15T08:56:49.330Z,28.63
2023-02-15T08:59:22.531Z,27.77
2023-02-15T09:01:52.316Z,27.63
2023-02-15T09:04:20.008Z,27.80
2023-02-15T09:06:49.764Z,28.07
2023-02-15T09:09:18.602Z,27.93
2023-02-15T09:11:49.230Z,27.67
2023-02-15T09:14:21.045Z,26.67
2023-02-15T09:16:51.950Z,26.33
2023-02-15T09:19:21.742Z,26.00
2023-02-15T09:21:49.403Z,25.80
2023-02-15T09:24:18.239Z,25.27
2023-02-15T09:26:48.196Z,27.37
2023-02-15T09:29:16.584Z,25.47
2023-02-15T09:31:47.234Z,26.43
2023-02-15T09:34:19.247Z,25.33
2023-02-15T09:36:47.585Z,24.77
2023-02-15T09:39:26.316Z,25.53
2023-02-15T09:42:17.914Z,24.30
2023-02-15T09:45:18.869Z,26.10
2023-02-15T09:48:13.328Z,25.43
2023-02-15T09:51:12.924Z,26.93
2023-02-15T09:54:14.626Z,27.00
2023-02-15T09:56:57.228Z,26.97
2023-02-15T09:59:48.183Z,27.87
2023-02-15T10:02:32.605Z,26.40
2023-02-15T10:05:25.909Z,25.63
2023-02-15T10:08:45.062Z,26.67
2023-02-15T10:11:41.186Z,27.20
2023-02-15T10:14:39.037Z,26.73
2023-02-15T10:17:15.064Z,27.47
2023-02-15T10:20:29.702Z,26.70
2023-02-15T10:23:24.847Z,27.77
2023-02-15T10:25:57.602Z,28.00
2023-02-15T10:28:44.265Z,27.57
2023-02-15T10:31:46.404Z,26.77
2023-02-15T10:34:20.022Z,27.60
2023-02-15T10:37:20.494Z,28.20
2023-02-15T10:40:20.605Z,28.17
2023-02-15T10:43:24.458Z,28.13
2023-02-15T10:46:13.004Z,28.67
2023-02-15T10:49:12.997Z,28.97
2023-02-15T10:52:00.913Z,29.67
2023-02-15T10:54:56.632Z,30.00
2023-02-15T10:57:59.264Z,29.00
2023-02-15T11:01:02.592Z,30.17
2023-02-15T11:04:07.184Z,29.77
2023-02-15T11:06:37.754Z,29.77
2023-02-15T11:09:13.907Z,30.13
2023-02-15T11:11:46.418Z,30.60
2023-02-15T11:14:29.020Z,29.93
2023-02-15T11:17:04.230Z,29.23
2023-02-15T11:19:41.089Z,29.80
2023-02-15T11:22:11.559Z,29.03
2023-02-15T11:24:46.315Z,31.63
2023-02-15T11:27:28.158Z,29.57
2023-02-15T11:30:04.760Z,28.53
2023-02-15T11:32:48.120Z,29.40
2023-02-15T11:35:14.961Z,29.53
2023-02-15T11:38:00.169Z,28.80
2023-02-15T11:40:51.034Z,28.43
2023-02-15T11:43:59.718Z,29.43
2023-02-15T11:46:26.769Z,29.20
2023-02-15T11:48:53.944Z,30.57
2023-02-15T11:51:24.050Z,30.37
2023-02-15T11:53:52.020Z,29.90
2023-02-15T11:56:25.016Z,29.10
2023-02-15T11:59:08.363Z,28.37
2023-02-15T12:01:43.981Z,29.97
2023-02-15T12:04:44.400Z,30.73
2023-02-15T12:07:23.713Z,29.57
2023-02-15T12:10:08.165Z,31.17
2023-02-15T12:12:36.820Z,30.47
2023-02-15T12:15:11.082Z,30.27
2023-02-15T12:17:54.424Z,29.77
2023-02-15T12:20:21.367Z,30.20
2023-02-15T12:22:56.588Z,31.17
2023-02-15T12:25:33.619Z,31.23
2023-02-15T12:28:00.890Z,30.03
2023-02-15T12:30:34.481Z,29.90
2023-02-15T12:33:25.308Z,30.17
2023-02-15T12:36:11.112Z,32.03
2023-02-15T12:38:38.998Z,31.90
2023-02-15T12:41:22.584Z,32.37
2023-02-15T12:44:16.080Z,32.90
2023-02-15T12:46:43.091Z,31.33
2023-02-15T12:49:21.435Z,32.40
2023-02-15T12:51:57.693Z,34.17
2023-02-15T12:54:30.822Z,34.10
2023-02-15T12:56:59.572Z,32.50
2023-02-15T12:59:26.638Z,32.33
2023-02-15T13:01:54.887Z,32.27
2023-02-15T13:04:28.529Z,32.10
2023-02-15T13:07:01.628Z,33.73
2023-02-15T13:09:32.113Z,32.97
2023-02-15T13:12:21.728Z,33.87
2023-02-15T13:14:52.847Z,34.07
2023-02-15T13:17:30.705Z,35.20
2023-02-15T13:20:05.241Z,33.07
2023-02-15T13:22:43.964Z,33.37
2023-02-15T13:25:24.724Z,34.17
2023-02-15T13:28:01.735Z,34.43
2023-02-15T13:30:37.354Z,33.27
2023-02-15T13:33:22.781Z,32.83
2023-02-15T13:36:08.957Z,33.17
2023-02-15T13:38:57.151Z,31.97
2023-02-15T13:41:36.475Z,33.20
2023-02-15T13:44:22.585Z,31.43
2023-02-15T13:47:22.021Z,32.90
2023-02-15T13:50:16.393Z,33.63
2023-02-15T13:53:07.416Z,32.83
2023-02-15T13:56:03.646Z,34.13
2023-02-15T13:58:48.653Z,31.70
2023-02-15T14:01:54.777Z,32.13
2023-02-15T14:05:14.732Z,31.73
2023-02-15T14:07:59.709Z,29.80
2023-02-15T14:11:03.960Z,30.10
2023-02-15T14:13:52.259Z,29.13
2023-02-15T14:16:25.130Z,27.97
2023-02-15T14:19:07.209Z,27.60
2023-02-15T14:21:58.860Z,25.93
2023-02-15T14:24:45.531Z,27.90
2023-02-15T14:27:44.865Z,27.43
2023-02-15T14:30:24.741Z,27.83
2023-02-15T14:33:10.028Z,28.40
2023-02-15T14:35:38.193Z,27.77
2023-02-15T14:38:28.172Z,28.13
2023-02-15T14:41:28.771Z,27.60
2023-02-15T14:44:38.667Z,28.87
2023-02-15T14:47:26.630Z,28.80
2023-02-15T14:49:53.650Z,28.33
2023-02-15T14:52:21.033Z,29.53
2023-02-15T14:54:47.914Z,29.13
2023-02-15T14:57:14.787Z,28.80
2023-02-15T14:59:53.604Z,28.13
2023-02-15T15:02:39.881Z,27.97
2023-02-15T15:05:17.504Z,29.50
2023-02-15T15:07:57.911Z,28.70
2023-02-15T15:10:35.603Z,30.20
2023-02-15T15:13:31.334Z,28.63
2023-02-15T15:16:31.744Z,28.37
2023-02-15T15:19:00.414Z,29.60
2023-02-15T15:21:57.652Z,29.83
2023-02-15T15:24:39.710Z,29.67
2023-02-15T15:27:55.201Z,29.43
2023-02-15T15:30:22.458Z,30.17
2023-02-15T15:32:55.366Z,30.97
2023-02-15T15:35:36.054Z,31.10
2023-02-15T15:38:13.121Z,30.63
2023-02-15T15:41:02.095Z,30.97
2023-02-15T15:43:59.061Z,29.87
2023-02-15T15:46:47.201Z,30.57
2023-02-15T15:49:19.275Z,30.23
2023-02-15T15:51:47.746Z,31.23
2023-02-15T15:54:25.181Z,30.80
2023-02-15T15:57:05.221Z,31.37
2023-02-15T15:59:35.325Z,30.00
2023-02-15T16:02:13.773Z,30.27
2023-02-15T16:04:40.814Z,30.80
2023-02-15T16:07:20.323Z,30.17
2023-02-15T16:10:08.360Z,31.53
2023-02-15T16:12:38.396Z,30.27
2023-02-15T16:15:45.370Z,30.53
2023-02-15T16:18:18.901Z,29.87
2023-02-15T16:21:03.173Z,29.97
2023-02-15T16:23:42.847Z,30.07
2023-02-15T16:26:54.264Z,30.17
2023-02-15T16:29:33.444Z,29.93
2023-02-15T16:32:20.797Z,31.47
2023-02-15T16:35:00.911Z,30.30
2023-02-15T16:37:35.833Z,29.93
2023-02-15T16:40:03.708Z,31.73
2023-02-15T16:42:31.024Z,31.90
2023-02-15T16:45:17.856Z,30.93
2023-02-15T16:47:51.082Z,31.33
2023-02-15T16:50:24.645Z,32.70
2023-02-15T16:52:53.476Z,32.30
2023-02-15T16:55:30.980Z,30.90
2023-02-15T16:58:12.688Z,31.13
2023-02-15T17:00:42.324Z,29.87
2023-02-15T17:03:15.461Z,29.93
2023-02-15T17:05:48.265Z,31.73
2023-02-15T17:08:26.640Z,30.53
2023-02-15T17:10:59.816Z,31.53
2023-02-15T17:13:28.489Z,30.83
2023-02-15T17:16:03.871Z,32.87
2023-02-15T17:18:41.141Z,32.13
2023-02-15T17:21:21.643Z,32.93
2023-02-15T17:23:51.873Z,33.10
2023-02-15T17:26:26.115Z,33.40
2023-02-15T17:28:58.310Z,35.43
2023-02-15T17:31:30.541Z,34.03
2023-02-15T17:33:59.562Z,35.10
2023-02-15T17:36:30.334Z,34.07
2023-02-15T17:39:07.927Z,35.57
2023-02-15T17:41:38.265Z,34.93
2023-02-15T17:44:09.025Z,35.77
2023-02-15T17:46:38.977Z,35.37
2023-02-15T17:49:06.501Z,36.47
2023-02-15T17:51:36.057Z,36.10
2023-02-15T17:54:22.240Z,36.07
2023-02-15T17:56:49.187Z,36.20
2023-02-15T17:59:16.148Z,35.60
2023-02-15T18:02:08.231Z,37.10
2023-02-15T18:04:55.860Z,37.90
2023-02-15T18:07:41.960Z,38.73
2023-02-15T18:10:38.664Z,36.13
2023-02-15T18:13:05.701Z,39.30
2023-02-15T18:15:33.004Z,37.73
2023-02-15T18:18:00.295Z,37.13
2023-02-15T18:20:36.872Z,39.37
2023-02-15T18:23:04.157Z,37.77
2023-02-15T18:25:31.316Z,37.23
2023-02-15T18:27:58.347Z,38.47
2023-02-15T18:30:26.817Z,38.70
2023-02-15T18:32:57.739Z,37.83
2023-02-15T18:35:29.465Z,39.20
2023-02-15T18:37:56.866Z,37.67
2023-02-15T18:40:27.521Z,40.73
2023-02-15T18:42:57.106Z,39.43
2023-02-15T18:45:28.702Z,39.27
2023-02-15T18:47:56.229Z,39.40
2023-02-15T18:50:25.465Z,39.43
2023-02-15T18:53:10.578Z,38.03
2023-02-15T18:55:37.750Z,38.73
2023-02-15T18:58:04.948Z,39.77
2023-02-15T19:00:35.379Z,40.57
2023-02-15T19:03:03.409Z,40.57
2023-02-15T19:05:32.428Z,40.53
2023-02-15T19:08:01.213Z,39.50
2023-02-15T19:10:31.447Z,39.97
2023-02-15T19:12:58.766Z,39.53
2023-02-15T19:15:30.509Z,40.70
2023-02-15T19:17:57.578Z,42.57
2023-02-15T19:20:42.468Z,40.17
2023-02-15T19:23:19.472Z,38.97
2023-02-15T19:25:48.020Z,38.20
2023-02-15T19:28:18.783Z,38.63
2023-02-15T19:30:46.240Z,37.97
2023-02-15T19:33:21.763Z,40.30
2023-02-15T19:35:54.163Z,41.13
2023-02-15T19:38:26.914Z,41.80
2023-02-15T19:40:58.046Z,40.53
2023-02-15T19:43:26.413Z,40.00
2023-02-15T19:45:53.982Z,42.33
2023-02-15T19:48:20.959Z,41.93
2023-02-15T19:54:30.767Z,39.30
2023-02-15T19:56:58.158Z,40.60
2023-02-15T19:59:32.972Z,41.00
2023-02-15T20:02:00.497Z,41.80
2023-02-15T20:04:27.859Z,41.23
2023-02-15T20:06:59.011Z,41.33
2023-02-15T20:09:32.826Z,41.10
2023-02-15T20:12:00.398Z,41.03
2023-02-15T20:14:28.051Z,40.27
2023-02-15T20:16:55.150Z,41.87
2023-02-15T20:19:22.126Z,42.63
2023-02-15T20:25:21.872Z,38.50
2023-02-15T20:27:49.833Z,39.20
2023-02-15T20:30:24.525Z,39.17
2023-02-15T20:32:57.170Z,41.57
2023-02-15T20:35:39.428Z,39.03
2023-02-15T20:38:30.855Z,40.10
2023-02-15T20:41:23.617Z,39.20
2023-02-15T20:43:51.272Z,39.93
2023-02-15T20:46:18.256Z,39.43
2023-02-15T20:48:45.320Z,39.50
2023-02-15T20:51:21.804Z,37.77
2023-02-15T20:53:49.068Z,40.10
2023-02-15T20:56:22.926Z,39.77
2023-02-15T20:58:51.002Z,40.93
2023-02-15T21:01:21.820Z,41.30
2023-02-15T21:03:49.117Z,39.50
2023-02-15T21:06:17.234Z,38.97
2023-02-15T21:08:44.619Z,39.90
2023-02-15T21:11:22.733Z,38.47
2023-02-15T21:13:51.241Z,38.97
2023-02-15T21:16:18.343Z,38.80
2023-02-15T21:18:45.405Z,38.13
2023-02-15T21:21:23.804Z,38.77
2023-02-15T21:23:52.862Z,37.53
2023-02-15T21:26:23.119Z,37.50
2023-02-15T21:28:50.526Z,39.50
2023-02-15T21:31:24.246Z,36.53
2023-02-15T21:33:51.539Z,36.43
2023-02-15T21:36:25.160Z,37.87
2023-02-15T21:38:53.842Z,38.10
2023-02-15T21:41:42.707Z,37.43
2023-02-15T21:44:41.394Z,36.10
2023-02-15T21:47:49.789Z,36.43
2023-02-15T21:50:42.262Z,35.80
2023-02-15T21:53:38.816Z,36.27
2023-02-15T21:56:09.353Z,37.23
2023-02-15T21:58:37.192Z,37.47
2023-02-15T22:01:05.101Z,36.60
2023-02-15T22:03:36.868Z,36.57
2023-02-15T22:06:04.918Z,37.90
2023-02-15T22:08:32.653Z,37.17
2023-02-15T22:10:59.943Z,37.77
2023-02-15T22:13:34.024Z,37.50
2023-02-15T22:16:02.324Z,37.13
2023-02-15T22:18:34.265Z,36.40
2023-02-15T22:21:03.641Z,37.37
2023-02-15T22:23:31.200Z,36.13
2023-02-15T22:26:04.201Z,36.87
2023-02-15T22:28:38.281Z,37.87
2023-02-15T22:31:12.024Z,37.07
2023-02-15T22:33:39.851Z,37.60
2023-02-15T22:36:09.504Z,37.57
2023-02-15T22:38:36.415Z,37.00
2023-02-15T22:41:05.648Z,36.87
2023-02-15T22:43:41.614Z,37.43
2023-02-15T22:46:17.719Z,36.70
2023-02-15T22:48:47.577Z,38.67
2023-02-15T22:51:21.100Z,39.23
2023-02-15T22:53:52.336Z,39.17
2023-02-15T22:56:27.781Z,39.47
2023-02-15T22:59:04.058Z,40.17
2023-02-15T23:01:35.268Z,40.97
2023-02-15T23:04:03.884Z,39.17
2023-02-15T23:06:32.034Z,42.07
2023-02-15T23:09:00.752Z,41.50
2023-02-15T23:11:28.151Z,42.13
2023-02-15T23:13:55.367Z,42.37
2023-02-15T23:16:22.511Z,39.40
2023-02-15T23:18:51.109Z,40.30
2023-02-15T23:21:27.015Z,41.53
2023-02-15T23:24:17.630Z,40.77
2023-02-15T23:26:44.795Z,43.33
2023-02-15T23:29:23.524Z,43.33
2023-02-15T23:31:53.242Z,43.63
2023-02-15T23:34:24.786Z,41.83
2023-02-15T23:36:51.852Z,43.57
2023-02-15T23:39:41.698Z,43.60
2023-02-15T23:42:19.415Z,43.03
2023-02-15T23:44:48.234Z,44.17
2023-02-15T23:47:47.937Z,42.53
2023-02-15T23:50:26.322Z,43.40
2023-02-15T23:52:54.849Z,43.27
2023-02-15T23:55:22.725Z,43.67
2023-02-15T23:57:50.179Z,43.63
